Time;durP1;ratioP1;P1;durP2;ratioP2;P2;SDS_P1;SDS_P2;PMS_P1;PMS_P2;Temp;Humidity;BMP_temperature;BMP_pressure;BME280_temperature;BME280_humidity;BME280_pressure;Samples;Min_cycle;Max_cycle;Signal;HPM_P1;HPM_P2
2021/08/30 00:02:03;;;;;;;9.25;4.20;;;17.40;85.70;;;;;;5031681;28;20025;-82
2021/08/30 00:04:29;;;;;;;6.43;4.18;;;17.40;85.70;;;;;;5032087;28;20033;-82
2021/08/30 00:06:54;;;;;;;5.38;3.80;;;17.40;85.70;;;;;;5031269;28;20164;-82
2021/08/30 00:09:20;;;;;;;7.40;4.75;;;17.40;85.80;;;;;;5031460;28;20156;-83
2021/08/30 00:11:46;;;;;;;5.75;4.10;;;17.40;85.70;;;;;;5027183;28;20032;-82
2021/08/30 00:14:11;;;;;;;5.35;3.88;;;17.40;85.80;;;;;;5030713;28;20034;-82
2021/08/30 00:16:37;;;;;;;6.00;4.22;;;17.40;85.80;;;;;;5029381;28;20021;-82
2021/08/30 00:19:02;;;;;;;7.00;4.30;;;17.30;85.70;;;;;;5031365;28;20072;-82
2021/08/30 00:21:28;;;;;;;6.35;4.18;;;17.40;85.80;;;;;;5031896;28;20099;-82
2021/08/30 00:23:54;;;;;;;5.85;4.05;;;17.40;85.80;;;;;;5031272;28;20037;-82
2021/08/30 00:26:19;;;;;;;5.85;3.75;;;17.30;85.70;;;;;;5029071;28;20029;-82
2021/08/30 00:28:45;;;;;;;5.93;3.72;;;17.30;85.80;;;;;;5031273;28;20036;-81
2021/08/30 00:31:10;;;;;;;5.75;4.22;;;17.30;85.80;;;;;;5032783;28;20099;-83
2021/08/30 00:33:36;;;;;;;6.78;4.00;;;17.30;85.80;;;;;;5029573;28;20029;-83
2021/08/30 00:36:02;;;;;;;5.95;4.43;;;17.30;85.90;;;;;;5030510;28;20041;-83
2021/08/30 00:38:27;;;;;;;5.28;3.47;;;17.30;85.90;;;;;;5030050;28;20079;-82
2021/08/30 00:40:53;;;;;;;4.72;3.50;;;17.20;85.90;;;;;;5031124;28;20083;-82
2021/08/30 00:43:18;;;;;;;5.53;3.58;;;17.30;85.90;;;;;;5031385;28;20503;-82
2021/08/30 00:45:44;;;;;;;6.93;3.70;;;17.30;85.90;;;;;;5030446;28;20049;-82
2021/08/30 00:48:09;;;;;;;5.35;3.72;;;17.30;85.80;;;;;;5029741;28;20014;-82
2021/08/30 00:50:35;;;;;;;5.40;3.78;;;17.30;85.80;;;;;;5030893;28;20021;-82
2021/08/30 00:53:00;;;;;;;5.85;3.35;;;17.30;85.80;;;;;;5031018;28;20038;-82
2021/08/30 00:55:26;;;;;;;7.15;4.30;;;17.30;85.80;;;;;;5031275;28;20025;-81
2021/08/30 00:57:53;;;;;;;6.50;4.03;;;17.30;85.80;;;;;;5030436;28;20396;-81
2021/08/30 01:00:19;;;;;;;5.78;3.63;;;17.30;85.80;;;;;;5030441;28;20383;-81
2021/08/30 01:02:45;;;;;;;4.55;3.35;;;17.30;85.70;;;;;;5029774;28;20587;-81
2021/08/30 01:05:13;;;;;;;7.40;3.88;;;17.30;85.70;;;;;;5035993;28;20053;-81
2021/08/30 01:07:59;;;;;;;5.57;3.78;;;17.30;85.70;;;;;;5030542;28;20020;-81
2021/08/30 01:10:43;;;;;;;5.00;3.53;;;17.30;85.60;;;;;;5021685;28;20517;-80
2021/08/30 01:13:16;;;;;;;5.13;3.53;;;17.40;85.60;;;;;;5031237;28;20029;-81
2021/08/30 01:15:44;;;;;;;5.47;3.80;;;17.40;85.60;;;;;;5030365;28;20384;-81
2021/08/30 01:18:17;;;;;;;5.20;3.40;;;17.40;85.60;;;;;;5028969;28;20438;-81
2021/08/30 01:21:06;;;;;;;5.15;3.60;;;17.40;85.60;;;;;;5031017;28;20560;-81
2021/08/30 01:23:36;;;;;;;6.35;3.72;;;17.40;85.60;;;;;;5021125;28;20134;-81
2021/08/30 01:26:04;;;;;;;4.57;3.10;;;17.40;85.50;;;;;;5029573;28;20144;-81
2021/08/30 01:28:42;;;;;;;4.95;3.28;;;17.40;85.50;;;;;;5029593;28;20496;-81
2021/08/30 01:31:19;;;;;;;5.35;3.67;;;17.50;85.60;;;;;;5031064;28;20037;-81
2021/08/30 01:33:49;;;;;;;5.00;3.50;;;17.40;85.60;;;;;;5018367;28;20026;-81
2021/08/30 01:36:16;;;;;;;6.38;3.50;;;17.40;85.50;;;;;;5028962;28;20025;-81
2021/08/30 01:38:45;;;;;;;5.10;3.60;;;17.40;85.50;;;;;;5030159;28;20056;-81
2021/08/30 01:41:15;;;;;;;5.85;4.00;;;17.50;85.50;;;;;;5033348;28;20025;-81
2021/08/30 01:43:44;;;;;;;4.78;3.85;;;17.50;85.40;;;;;;5034770;28;20033;-82
2021/08/30 01:46:11;;;;;;;5.82;3.67;;;17.50;85.40;;;;;;5034090;28;20037;-81
2021/08/30 01:48:36;;;;;;;5.38;3.80;;;17.50;85.30;;;;;;5034466;28;20472;-82
2021/08/30 01:51:04;;;;;;;4.70;3.47;;;17.50;85.30;;;;;;5034296;28;20037;-82
2021/08/30 01:53:30;;;;;;;4.55;3.08;;;17.50;85.30;;;;;;5066317;28;20049;-81
2021/08/30 01:55:58;;;;;;;4.35;3.05;;;17.50;85.30;;;;;;5033377;28;20056;-82
2021/08/30 02:00:51;;;;;;;4.47;3.25;;;17.50;85.20;;;;;;5034220;28;20538;-82
2021/08/30 02:03:17;;;;;;;5.18;3.65;;;17.50;85.10;;;;;;5034267;28;20396;-81
2021/08/30 02:05:45;;;;;;;7.43;4.15;;;17.50;85.10;;;;;;5032809;28;20038;-81
2021/08/30 02:08:15;;;;;;;5.93;4.15;;;17.50;85.10;;;;;;5034196;28;20025;-82
2021/08/30 02:10:42;;;;;;;5.97;3.83;;;17.50;85.70;;;;;;5032785;28;20061;-82
2021/08/30 02:13:07;;;;;;;5.78;4.20;;;17.50;85.10;;;;;;5033856;28;20092;-82
2021/08/30 02:15:33;;;;;;;4.95;3.83;;;17.50;85.10;;;;;;5033689;28;20057;-82
2021/08/30 02:18:08;;;;;;;5.90;4.15;;;17.50;85.10;;;;;;5033314;28;20108;-81
2021/08/30 02:20:37;;;;;;;4.60;3.72;;;17.50;85.10;;;;;;5030326;28;20021;-82
2021/08/30 02:23:04;;;;;;;6.72;4.15;;;17.50;85.20;;;;;;5033608;28;20384;-82
2021/08/30 02:25:31;;;;;;;6.05;4.38;;;17.50;85.20;;;;;;5034349;28;20083;-82
2021/08/30 02:27:59;;;;;;;5.45;3.83;;;17.40;85.10;;;;;;5033414;28;20430;-82
2021/08/30 02:30:37;;;;;;;6.85;4.45;;;17.50;85.20;;;;;;5033947;28;20111;-82
2021/08/30 02:33:06;;;;;;;5.53;4.10;;;17.40;85.10;;;;;;5032754;28;20388;-81
2021/08/30 02:35:36;;;;;;;5.15;3.80;;;17.40;85.10;;;;;;5033357;28;20110;-82
2021/08/30 02:38:02;;;;;;;5.53;3.90;;;17.50;85.20;;;;;;5039659;28;20494;-81
2021/08/30 02:40:28;;;;;;;5.05;3.70;;;17.50;85.20;;;;;;5032547;28;20104;-82
2021/08/30 02:42:56;;;;;;;6.63;3.75;;;17.40;85.10;;;;;;5032711;28;20030;-82
2021/08/30 02:45:23;;;;;;;4.38;3.75;;;17.40;85.10;;;;;;5032645;28;20044;-81
2021/08/30 02:47:50;;;;;;;4.47;3.67;;;17.40;85.10;;;;;;5033267;28;20100;-80
2021/08/30 02:50:16;;;;;;;5.07;3.65;;;17.40;85.10;;;;;;5033767;28;20022;-81
2021/08/30 02:52:44;;;;;;;5.90;3.97;;;17.40;85.20;;;;;;5033156;28;20024;-83
2021/08/30 02:55:10;;;;;;;5.53;3.97;;;17.40;85.20;;;;;;5033197;28;20033;-82
2021/08/30 02:57:36;;;;;;;6.13;4.53;;;17.40;85.30;;;;;;5031084;28;20060;-82
2021/08/30 03:00:04;;;;;;;6.20;4.35;;;17.40;85.30;;;;;;5032432;28;20081;-82
2021/08/30 03:02:30;;;;;;;6.00;4.18;;;17.40;85.40;;;;;;5032625;28;20477;-83
2021/08/30 03:04:57;;;;;;;6.13;4.60;;;17.40;85.40;;;;;;5033047;28;20404;-82
2021/08/30 03:07:28;;;;;;;5.93;4.25;;;17.40;85.40;;;;;;5032455;28;20434;-82
2021/08/30 03:09:55;;;;;;;7.13;4.65;;;17.40;85.50;;;;;;5032313;28;20067;-83
2021/08/30 03:12:21;;;;;;;5.43;4.03;;;17.40;85.50;;;;;;5033075;28;20051;-81
2021/08/30 03:14:48;;;;;;;5.35;3.70;;;17.40;85.50;;;;;;5031220;28;20021;-81
2021/08/30 03:17:15;;;;;;;6.32;4.18;;;17.40;85.50;;;;;;5032351;28;20033;-81
2021/08/30 03:19:44;;;;;;;7.22;4.22;;;17.40;85.50;;;;;;5032667;28;20026;-82
2021/08/30 03:22:11;;;;;;;5.13;4.10;;;17.40;85.50;;;;;;5032699;28;20021;-81
2021/08/30 03:24:40;;;;;;;5.88;4.53;;;17.30;85.50;;;;;;5018911;28;20025;-81
2021/08/30 03:27:08;;;;;;;6.90;4.63;;;17.30;85.50;;;;;;5031769;28;20034;-81
2021/08/30 03:29:33;;;;;;;5.22;3.90;;;17.40;85.60;;;;;;5032190;28;20029;-82
2021/08/30 03:32:00;;;;;;;6.95;4.55;;;17.40;85.50;;;;;;5064694;28;20029;-82
2021/08/30 03:34:27;;;;;;;6.47;4.70;;;17.40;85.50;;;;;;5032158;28;20033;-82
2021/08/30 03:36:54;;;;;;;6.40;4.72;;;17.40;85.40;;;;;;5032343;28;20026;-82
2021/08/30 03:39:20;;;;;;;5.45;4.38;;;17.40;85.40;;;;;;5031537;28;20060;-83
2021/08/30 03:41:50;;;;;;;7.90;5.00;;;17.40;85.50;;;;;;5032501;28;20037;-81
2021/08/30 03:44:17;;;;;;;7.68;5.50;;;17.40;85.50;;;;;;5031946;28;20463;-83
2021/08/30 03:46:44;;;;;;;7.43;4.55;;;17.40;85.60;;;;;;5032106;28;20587;-83
2021/08/30 03:49:11;;;;;;;6.63;4.28;;;17.40;85.70;;;;;;5032356;28;20022;-84
2021/08/30 03:51:37;;;;;;;5.45;4.07;;;17.40;85.70;;;;;;5031996;28;20473;-83
2021/08/30 03:54:03;;;;;;;7.28;5.00;;;17.40;85.70;;;;;;5032139;28;20373;-83
2021/08/30 03:56:30;;;;;;;6.40;4.25;;;17.40;85.70;;;;;;5030966;28;20087;-83
2021/08/30 03:58:56;;;;;;;8.27;5.10;;;17.40;85.70;;;;;;5031176;28;20468;-84
2021/08/30 04:01:25;;;;;;;7.47;5.38;;;17.40;85.70;;;;;;5030389;28;20033;-83
2021/08/30 04:03:54;;;;;;;8.55;5.05;;;17.40;85.70;;;;;;5031182;28;20126;-84
2021/08/30 04:06:21;;;;;;;7.65;5.00;;;17.40;85.80;;;;;;5029810;28;20053;-83
2021/08/30 04:08:47;;;;;;;8.82;5.57;;;17.40;85.80;;;;;;5030681;28;20022;-83
2021/08/30 04:11:14;;;;;;;7.50;4.50;;;17.40;85.80;;;;;;5031887;28;20021;-80
2021/08/30 04:13:40;;;;;;;5.97;4.20;;;17.40;85.80;;;;;;5026200;28;20032;-80
2021/08/30 04:16:07;;;;;;;8.52;5.38;;;17.40;85.90;;;;;;5030820;28;20039;-80
2021/08/30 04:18:32;;;;;;;8.40;5.47;;;17.40;85.90;;;;;;5029974;28;20025;-80
2021/08/30 04:20:58;;;;;;;11.27;6.53;;;17.40;85.90;;;;;;5032168;28;20019;-81
2021/08/30 04:23:24;;;;;;;7.75;5.70;;;17.40;85.90;;;;;;5063734;28;20370;-81
2021/08/30 04:25:49;;;;;;;8.38;5.65;;;17.50;85.90;;;;;;5030509;28;20082;-83
2021/08/30 04:28:15;;;;;;;8.50;5.68;;;17.40;85.90;;;;;;5030450;28;20029;-83
2021/08/30 04:30:40;;;;;;;8.13;5.30;;;17.40;86.00;;;;;;5030819;28;20037;-84
2021/08/30 04:33:12;;;;;;;9.48;5.35;;;17.50;86.10;;;;;;5031005;28;20029;-84
2021/08/30 04:35:39;;;;;;;7.07;4.77;;;17.40;86.10;;;;;;5029615;28;20033;-84
2021/08/30 04:38:05;;;;;;;8.63;5.70;;;17.50;86.10;;;;;;5030947;28;20022;-83
2021/08/30 04:40:31;;;;;;;8.13;5.45;;;17.50;86.10;;;;;;5031079;28;20503;-83
2021/08/30 04:42:57;;;;;;;8.73;6.00;;;17.50;86.10;;;;;;5030661;28;20025;-83
2021/08/30 04:45:22;;;;;;;9.75;6.05;;;17.50;86.10;;;;;;5030906;28;20029;-84
2021/08/30 04:47:49;;;;;;;9.10;5.43;;;17.50;86.10;;;;;;5030878;28;20048;-84
2021/08/30 04:50:14;;;;;;;9.15;5.70;;;17.50;86.10;;;;;;5030484;28;20048;-84
2021/08/30 04:52:40;;;;;;;10.07;6.28;;;17.60;86.00;;;;;;5029970;28;20037;-82
2021/08/30 04:55:06;;;;;;;6.63;4.88;;;17.60;86.10;;;;;;5029188;28;20029;-82
2021/08/30 04:57:31;;;;;;;8.73;6.00;;;17.60;86.10;;;;;;5030033;28;20021;-82
2021/08/30 04:59:57;;;;;;;9.57;5.70;;;17.60;86.30;;;;;;5030458;28;20538;-82
2021/08/30 05:02:22;;;;;;;8.07;5.63;;;17.60;86.10;;;;;;5031118;28;20447;-82
2021/08/30 05:04:48;;;;;;;9.45;6.05;;;17.70;86.10;;;;;;5030477;28;20037;-83
2021/08/30 05:07:13;;;;;;;10.98;5.88;;;17.70;86.10;;;;;;5030925;28;20025;-82
2021/08/30 05:09:39;;;;;;;10.43;6.00;;;17.70;86.10;;;;;;5029962;28;20025;-82
2021/08/30 05:12:05;;;;;;;8.48;6.18;;;17.70;86.10;;;;;;5030402;28;20025;-82
2021/08/30 05:14:30;;;;;;;7.75;5.28;;;17.70;86.10;;;;;;5027805;28;20048;-82
2021/08/30 05:16:56;;;;;;;9.70;5.53;;;17.70;86.00;;;;;;5025466;28;20022;-83
2021/08/30 05:19:21;;;;;;;9.80;6.18;;;17.80;86.00;;;;;;5028203;28;20029;-82
2021/08/30 05:21:50;;;;;;;13.60;8.32;;;17.80;85.90;;;;;;5027926;28;20026;-85
2021/08/30 05:24:15;;;;;;;10.23;7.10;;;17.70;86.10;;;;;;5026506;28;20029;-85
2021/08/30 05:26:41;;;;;;;9.95;6.40;;;17.70;86.20;;;;;;5028338;28;20048;-82
2021/08/30 05:29:09;;;;;;;11.10;6.70;;;17.80;86.20;;;;;;5028428;28;20022;-82
2021/08/30 05:31:34;;;;;;;10.88;7.10;;;17.80;86.20;;;;;;5024357;28;20033;-82
2021/08/30 05:34:00;;;;;;;11.30;7.55;;;17.80;86.10;;;;;;5028279;28;20459;-83
2021/08/30 05:36:26;;;;;;;12.25;7.20;;;17.80;86.10;;;;;;5026183;28;20058;-83
2021/08/30 05:38:53;;;;;;;10.20;6.53;;;17.80;86.10;;;;;;5030073;28;20072;-81
2021/08/30 05:41:22;;;;;;;9.85;6.57;;;17.90;86.10;;;;;;5028736;28;20025;-82
2021/08/30 05:43:47;;;;;;;9.25;6.00;;;17.90;85.90;;;;;;5025163;28;20066;-85
2021/08/30 05:46:16;;;;;;;9.85;5.30;;;17.90;85.70;;;;;;5027217;28;20036;-83
2021/08/30 05:48:51;;;;;;;11.38;6.63;;;18.00;86.50;;;;;;5024859;28;20033;-83
2021/08/30 05:51:17;;;;;;;9.38;6.10;;;18.00;85.80;;;;;;5027281;28;20105;-84
2021/08/30 05:53:42;;;;;;;11.88;7.00;;;18.10;85.60;;;;;;5029629;28;20113;-84
2021/08/30 05:56:08;;;;;;;8.25;6.03;;;18.00;85.50;;;;;;5027708;28;20036;-85
2021/08/30 05:58:35;;;;;;;9.07;6.47;;;18.10;85.50;;;;;;5029481;28;20045;-82
2021/08/30 06:01:03;;;;;;;8.45;6.00;;;18.00;85.50;;;;;;5028618;28;20033;-81
2021/08/30 06:03:28;;;;;;;7.43;4.80;;;18.10;85.50;;;;;;5028441;28;20021;-83
2021/08/30 06:05:54;;;;;;;7.88;5.40;;;18.10;85.40;;;;;;5024790;28;20554;-85
2021/08/30 06:08:20;;;;;;;12.18;7.20;;;18.20;85.40;;;;;;5024273;28;20026;-83
2021/08/30 06:10:45;;;;;;;9.75;6.50;;;18.20;85.40;;;;;;5027636;28;20033;-85
2021/08/30 06:13:11;;;;;;;9.57;6.45;;;18.20;85.30;;;;;;5028551;28;20021;-84
2021/08/30 06:15:37;;;;;;;10.95;7.03;;;18.20;85.40;;;;;;5026119;28;20029;-85
2021/08/30 06:18:03;;;;;;;9.73;6.57;;;18.30;85.30;;;;;;5028553;28;20014;-83
2021/08/30 06:20:28;;;;;;;9.88;7.00;;;18.30;85.20;;;;;;5029089;28;20022;-88
2021/08/30 06:22:54;;;;;;;10.10;6.15;;;18.30;85.20;;;;;;5027137;28;20018;-84
2021/08/30 06:25:20;;;;;;;11.38;6.18;;;18.30;85.10;;;;;;5024721;28;20040;-86
2021/08/30 06:27:45;;;;;;;9.65;6.32;;;18.50;85.20;;;;;;5029820;28;20055;-85
2021/08/30 06:30:11;;;;;;;11.05;7.68;;;18.70;84.70;;;;;;5027354;28;20079;-84
2021/08/30 06:32:37;;;;;;;11.18;7.18;;;18.80;84.20;;;;;;5029150;28;20064;-84
2021/08/30 06:35:03;;;;;;;10.90;7.50;;;19.00;83.80;;;;;;5032036;28;20057;-86
2021/08/30 06:37:28;;;;;;;11.57;6.80;;;19.10;83.50;;;;;;5027913;28;20431;-86
2021/08/30 06:39:54;;;;;;;9.65;6.25;;;19.00;83.30;;;;;;5031552;28;20034;-85
2021/08/30 06:42:19;;;;;;;10.10;6.07;;;19.00;83.40;;;;;;5061203;28;20026;-85
2021/08/30 06:44:45;;;;;;;10.50;5.88;;;18.90;83.60;;;;;;5032379;28;20124;-86
2021/08/30 06:47:11;;;;;;;8.40;5.80;;;18.80;83.60;;;;;;5031020;28;20030;-83
2021/08/30 06:49:36;;;;;;;10.63;6.30;;;18.80;83.90;;;;;;5031352;28;20052;-83
2021/08/30 06:52:02;;;;;;;11.15;6.47;;;18.80;84.00;;;;;;5032959;28;20024;-85
2021/08/30 06:54:28;;;;;;;8.98;6.30;;;18.80;84.00;;;;;;5026426;28;20116;-83
2021/08/30 06:56:54;;;;;;;11.75;7.10;;;18.80;84.00;;;;;;5032137;28;20155;-85
2021/08/30 06:59:19;;;;;;;10.82;7.50;;;18.70;84.10;;;;;;5029577;28;20037;-84
2021/08/30 07:01:45;;;;;;;11.70;6.88;;;18.70;84.20;;;;;;5031036;28;20033;-83
2021/08/30 07:04:10;;;;;;;10.57;5.95;;;18.70;84.30;;;;;;5029248;28;20087;-83
2021/08/30 07:06:36;;;;;;;9.00;5.45;;;18.70;84.30;;;;;;5026467;28;20025;-83
2021/08/30 07:09:03;;;;;;;8.13;5.78;;;18.70;84.70;;;;;;5030259;28;20026;-82
2021/08/30 07:11:32;;;;;;;7.88;5.45;;;18.70;84.20;;;;;;5028797;28;20387;-84
2021/08/30 07:13:58;;;;;;;9.23;6.60;;;18.80;84.30;;;;;;5031714;28;20020;-84
2021/08/30 07:16:25;;;;;;;7.97;5.50;;;18.80;84.20;;;;;;5026161;28;20030;-83
2021/08/30 07:18:50;;;;;;;10.48;6.18;;;18.80;84.20;;;;;;5030183;28;20052;-82
2021/08/30 07:21:16;;;;;;;10.68;6.55;;;18.80;84.10;;;;;;5030275;28;20029;-83
2021/08/30 07:23:41;;;;;;;9.85;6.32;;;18.80;84.00;;;;;;5030062;28;20026;-84
2021/08/30 07:26:07;;;;;;;10.00;6.18;;;18.80;84.10;;;;;;5026226;28;20043;-84
2021/08/30 07:28:33;;;;;;;8.85;6.45;;;18.80;84.00;;;;;;5031139;28;20040;-83
2021/08/30 07:30:58;;;;;;;8.93;6.00;;;18.80;84.00;;;;;;5028586;28;20392;-84
2021/08/30 07:33:24;;;;;;;7.95;5.68;;;18.80;84.00;;;;;;5030919;28;20392;-87
2021/08/30 07:35:49;;;;;;;9.20;6.13;;;18.90;84.00;;;;;;5038822;28;20686;-86
2021/08/30 07:38:15;;;;;;;10.77;6.20;;;18.90;83.80;;;;;;5026987;28;20029;-84
2021/08/30 07:40:40;;;;;;;10.05;6.90;;;19.00;83.70;;;;;;5026721;28;20080;-84
2021/08/30 07:43:06;;;;;;;8.27;6.10;;;19.10;83.70;;;;;;5031810;28;20033;-85
2021/08/30 07:45:32;;;;;;;11.75;7.15;;;19.10;83.50;;;;;;5033072;28;20489;-84
2021/08/30 07:47:57;;;;;;;11.10;7.40;;;19.20;83.50;;;;;;5039887;28;20067;-82
2021/08/30 07:50:23;;;;;;;11.18;7.63;;;19.20;83.30;;;;;;5032356;28;20358;-84
2021/08/30 07:52:49;;;;;;;10.00;7.20;;;19.20;83.30;;;;;;5059673;28;20022;-83
2021/08/30 07:55:15;;;;;;;7.13;5.82;;;19.20;83.30;;;;;;5028438;28;20451;-82
2021/08/30 07:57:42;;;;;;;7.57;5.13;;;19.20;83.30;;;;;;5039606;28;20099;-82
2021/08/30 08:00:08;;;;;;;8.15;6.05;;;19.20;83.30;;;;;;5039434;28;20476;-82
2021/08/30 08:02:34;;;;;;;9.23;6.90;;;19.20;83.30;;;;;;5039341;28;20017;-82
2021/08/30 08:05:00;;;;;;;10.65;6.75;;;19.20;83.20;;;;;;5035584;28;20033;-81
2021/08/30 08:07:26;;;;;;;9.35;6.80;;;19.20;83.20;;;;;;5030251;28;20022;-81
2021/08/30 08:09:52;;;;;;;9.75;6.60;;;19.10;83.10;;;;;;5035377;28;20503;-79
2021/08/30 08:12:17;;;;;;;7.28;6.35;;;19.10;83.10;;;;;;5030965;28;20029;-79
2021/08/30 08:14:43;;;;;;;11.25;7.13;;;19.10;83.20;;;;;;5028561;28;20068;-78
2021/08/30 08:17:08;;;;;;;10.40;7.25;;;19.10;83.10;;;;;;5029239;28;20041;-77
2021/08/30 08:19:34;;;;;;;9.00;7.10;;;19.10;83.10;;;;;;5033497;28;20017;-77
2021/08/30 08:22:01;;;;;;;8.75;6.15;;;19.10;83.10;;;;;;5027131;28;20029;-79
2021/08/30 08:24:28;;;;;;;10.77;6.93;;;19.20;83.20;;;;;;5029632;28;20034;-80
2021/08/30 08:26:54;;;;;;;7.88;6.45;;;19.20;83.10;;;;;;5024311;28;20025;-82
2021/08/30 08:29:20;;;;;;;9.80;7.30;;;19.30;82.90;;;;;;5028928;28;20032;-81
2021/08/30 08:31:46;;;;;;;11.27;7.43;;;19.40;82.80;;;;;;5027791;28;20025;-80
2021/08/30 08:34:11;;;;;;;9.38;6.40;;;19.40;82.60;;;;;;5025822;28;20034;-80
2021/08/30 08:36:39;;;;;;;9.07;5.93;;;19.60;82.40;;;;;;5030748;28;20112;-80
2021/08/30 08:39:05;;;;;;;8.48;6.65;;;20.10;81.20;;;;;;5032517;28;20017;-79
2021/08/30 08:41:32;;;;;;;9.40;6.57;;;20.00;80.90;;;;;;5033621;28;20098;-80
2021/08/30 08:43:58;;;;;;;8.30;5.70;;;20.20;81.00;;;;;;5034215;28;20045;-81
2021/08/30 08:46:25;;;;;;;8.75;6.57;;;20.80;79.60;;;;;;5034154;28;20052;-80
2021/08/30 08:48:51;;;;;;;9.13;6.65;;;20.70;79.00;;;;;;5038985;28;20051;-83
2021/08/30 08:51:16;;;;;;;7.97;5.63;;;20.90;79.00;;;;;;5039310;28;20017;-82
2021/08/30 08:53:48;;;;;;;11.27;6.82;;;22.00;76.00;;;;;;5033326;28;20028;-81
2021/08/30 08:56:16;;;;;;;7.97;6.40;;;21.80;75.30;;;;;;5039058;28;20658;-81
2021/08/30 08:58:42;;;;;;;8.02;5.85;;;21.40;75.50;;;;;;5032217;28;20108;-83
2021/08/30 09:01:11;;;;;;;6.68;5.38;;;21.20;76.30;;;;;;5032663;28;20110;-81
2021/08/30 09:03:44;;;;;;;8.23;5.63;;;21.00;76.40;;;;;;5030194;28;20144;-81
2021/08/30 09:06:10;;;;;;;8.75;5.47;;;20.90;77.20;;;;;;5034732;28;20380;-81
2021/08/30 09:08:41;;;;;;;7.57;5.70;;;20.80;76.80;;;;;;5038597;28;20037;-83
2021/08/30 09:11:21;;;;;;;7.68;5.30;;;20.70;76.80;;;;;;5064376;28;20021;-82
2021/08/30 09:13:53;;;;;;;7.65;5.50;;;20.60;76.70;;;;;;5036460;28;20553;-82
2021/08/30 09:16:20;;;;;;;8.48;5.45;;;20.50;76.80;;;;;;5030836;28;20021;-82
2021/08/30 09:18:46;;;;;;;8.20;6.10;;;20.40;76.90;;;;;;5035284;28;20553;-84
2021/08/30 09:21:14;;;;;;;8.55;6.00;;;20.40;76.90;;;;;;5035910;28;20033;-83
2021/08/30 09:23:41;;;;;;;8.25;5.28;;;20.40;77.00;;;;;;5028760;28;20040;-83
2021/08/30 09:26:14;;;;;;;5.97;4.72;;;20.50;77.00;;;;;;5030272;28;20060;-81
2021/08/30 09:28:41;;;;;;;7.93;5.72;;;20.70;76.80;;;;;;5031860;28;20022;-82
2021/08/30 09:31:09;;;;;;;8.70;6.35;;;20.90;76.30;;;;;;5030213;28;20053;-81
2021/08/30 09:33:35;;;;;;;7.93;5.95;;;21.00;75.40;;;;;;5032433;28;20053;-82
2021/08/30 09:36:02;;;;;;;9.02;6.68;;;21.10;75.20;;;;;;5029941;28;20437;-84
2021/08/30 09:38:35;;;;;;;7.28;5.45;;;21.00;74.20;;;;;;5037761;28;20033;-83
2021/08/30 09:41:06;;;;;;;8.63;5.82;;;21.00;74.30;;;;;;5034439;28;20040;-83
2021/08/30 09:43:32;;;;;;;6.35;5.20;;;21.00;74.40;;;;;;5040985;28;20039;-85
2021/08/30 09:46:01;;;;;;;6.28;4.80;;;20.90;74.70;;;;;;5026549;28;20239;-84
2021/08/30 09:48:28;;;;;;;7.75;5.45;;;21.00;74.70;;;;;;5035389;28;20529;-82
2021/08/30 09:51:01;;;;;;;6.90;5.00;;;21.10;74.60;;;;;;5035871;28;20036;-81
2021/08/30 09:53:28;;;;;;;6.80;4.82;;;21.20;74.30;;;;;;5024499;28;20833;-83
2021/08/30 09:55:55;;;;;;;6.88;5.47;;;21.20;74.20;;;;;;5029100;28;20037;-82
2021/08/30 09:58:24;;;;;;;7.43;4.85;;;21.20;74.00;;;;;;5032727;28;20033;-83
2021/08/30 10:00:51;;;;;;;6.88;5.63;;;21.10;74.00;;;;;;5052841;28;20041;-84
2021/08/30 10:03:18;;;;;;;5.63;5.03;;;21.00;73.60;;;;;;5036491;28;20476;-82
2021/08/30 10:05:45;;;;;;;5.53;4.93;;;21.00;73.60;;;;;;5038203;28;20048;-87
2021/08/30 10:08:15;;;;;;;5.32;4.30;;;21.00;73.70;;;;;;5033299;28;20242;-84
2021/08/30 10:10:41;;;;;;;5.07;4.15;;;21.20;73.60;;;;;;5028411;28;20037;-86
2021/08/30 10:13:10;;;;;;;6.43;4.90;;;21.40;73.60;;;;;;5030325;28;20026;-83
2021/08/30 10:15:36;;;;;;;6.95;5.30;;;21.60;73.10;;;;;;5030733;28;20638;-83
2021/08/30 10:18:02;;;;;;;6.13;4.88;;;21.70;72.60;;;;;;5030203;28;20037;-86
2021/08/30 10:20:34;;;;;;;7.82;5.30;;;21.70;72.00;;;;;;5036576;28;20032;-84
2021/08/30 10:23:03;;;;;;;6.70;4.65;;;21.60;71.80;;;;;;5033189;28;20434;-84
2021/08/30 10:25:33;;;;;;;6.95;4.65;;;21.60;71.80;;;;;;5030984;28;20056;-82
2021/08/30 10:28:01;;;;;;;5.05;4.28;;;21.60;71.60;;;;;;5033065;28;20044;-83
2021/08/30 10:30:28;;;;;;;6.30;4.07;;;21.60;71.60;;;;;;5029226;28;20034;-84
2021/08/30 10:33:02;;;;;;;6.35;5.28;;;21.70;71.60;;;;;;5028328;28;20029;-80
2021/08/30 10:35:35;;;;;;;7.10;4.88;;;21.70;71.20;;;;;;5031561;28;20025;-80
2021/08/30 10:38:02;;;;;;;5.30;4.20;;;21.70;71.10;;;;;;5034313;28;20018;-81
2021/08/30 10:40:33;;;;;;;4.82;4.20;;;21.70;71.00;;;;;;5025653;28;20029;-82
2021/08/30 10:43:03;;;;;;;5.30;4.28;;;21.70;71.20;;;;;;5032183;28;20028;-81
2021/08/30 10:45:36;;;;;;;5.63;4.20;;;21.60;71.00;;;;;;5033731;28;20041;-79
2021/08/30 10:48:07;;;;;;;6.97;4.75;;;21.60;71.20;;;;;;5033852;28;20047;-81
2021/08/30 10:50:39;;;;;;;5.80;3.70;;;21.80;71.10;;;;;;5027465;28;20040;-81
2021/08/30 10:53:07;;;;;;;5.78;4.72;;;22.00;70.90;;;;;;5025034;28;20032;-79
2021/08/30 10:55:39;;;;;;;4.78;4.13;;;22.00;69.90;;;;;;5027367;28;20022;-80
2021/08/30 10:58:19;;;;;;;4.22;3.58;;;22.10;69.10;;;;;;5037544;28;20013;-80
2021/08/30 11:00:45;;;;;;;4.55;4.10;;;22.20;69.20;;;;;;5034826;28;20030;-81
2021/08/30 11:03:11;;;;;;;5.07;4.18;;;22.20;69.10;;;;;;5038858;28;20025;-79
2021/08/30 11:05:39;;;;;;;5.57;4.20;;;22.30;68.90;;;;;;5034254;28;20044;-79
2021/08/30 11:08:05;;;;;;;4.78;3.85;;;22.20;68.70;;;;;;5034124;28;20024;-78
2021/08/30 11:10:33;;;;;;;5.30;4.25;;;22.20;68.80;;;;;;5028421;28;20030;-79
2021/08/30 11:12:58;;;;;;;5.65;4.00;;;22.10;68.70;;;;;;5031670;28;20084;-80
2021/08/30 11:15:30;;;;;;;4.95;3.65;;;22.10;68.60;;;;;;5034289;28;20025;-80
2021/08/30 11:17:58;;;;;;;4.50;3.40;;;22.20;68.50;;;;;;5025424;28;20018;-80
2021/08/30 11:20:24;;;;;;;4.30;3.90;;;22.30;68.20;;;;;;5030505;28;20107;-78
2021/08/30 11:22:54;;;;;;;5.00;3.72;;;22.60;67.70;;;;;;5031084;28;20572;-79
2021/08/30 11:25:20;;;;;;;5.57;4.25;;;22.90;67.00;;;;;;5036572;28;20622;-80
2021/08/30 11:27:48;;;;;;;6.10;4.40;;;23.10;66.10;;;;;;5029441;28;20121;-82
2021/08/30 11:30:14;;;;;;;4.75;3.95;;;23.00;64.90;;;;;;5040388;28;20029;-81
2021/08/30 11:32:42;;;;;;;4.32;3.50;;;22.90;64.30;;;;;;5033060;28;20384;-81
2021/08/30 11:35:13;;;;;;;4.20;3.40;;;22.90;63.10;;;;;;5036423;28;20099;-81
2021/08/30 11:37:38;;;;;;;3.75;3.15;;;22.90;63.50;;;;;;5028220;28;20484;-81
2021/08/30 11:40:07;;;;;;;4.57;3.70;;;22.90;63.60;;;;;;5029480;28;20044;-82
2021/08/30 11:42:34;;;;;;;3.85;3.28;;;22.90;63.10;;;;;;5029788;28;20041;-84
2021/08/30 11:45:03;;;;;;;4.40;3.10;;;22.80;62.80;;;;;;5029561;28;20634;-84
2021/08/30 11:47:30;;;;;;;3.03;2.50;;;22.70;63.00;;;;;;5029514;28;20022;-82
2021/08/30 11:50:01;;;;;;;3.78;2.60;;;22.60;63.60;;;;;;5038621;28;20029;-82
2021/08/30 11:52:32;;;;;;;3.45;3.10;;;22.70;63.90;;;;;;5038489;28;20059;-80
2021/08/30 11:54:58;;;;;;;3.67;3.00;;;22.60;63.70;;;;;;5029796;28;20022;-82
2021/08/30 11:57:24;;;;;;;3.17;2.60;;;22.50;63.60;;;;;;5034272;28;20370;-81
2021/08/30 11:59:51;;;;;;;3.70;3.10;;;22.60;64.10;;;;;;5033605;28;20439;-82
2021/08/30 12:02:17;;;;;;;4.82;2.80;;;22.70;64.00;;;;;;5030971;28;20025;-83
2021/08/30 12:04:44;;;;;;;3.30;3.00;;;22.80;64.00;;;;;;5031616;28;20407;-83
2021/08/30 12:07:17;;;;;;;4.00;2.90;;;23.00;64.10;;;;;;5034517;28;20029;-87
2021/08/30 12:09:44;;;;;;;3.75;3.17;;;23.20;63.80;;;;;;5030007;28;20547;-82
2021/08/30 12:12:32;;;;;;;4.07;3.40;;;23.30;63.40;;;;;;5032017;28;20076;-80
2021/08/30 12:15:02;;;;;;;4.55;3.13;;;23.40;63.40;;;;;;5034025;28;20096;-81
2021/08/30 12:17:33;;;;;;;5.15;3.67;;;23.50;63.20;;;;;;5038311;28;20082;-82
2021/08/30 12:20:04;;;;;;;3.30;3.00;;;23.60;62.40;;;;;;5033849;28;20031;-80
2021/08/30 12:22:33;;;;;;;5.13;3.58;;;23.70;62.30;;;;;;5029208;28;20120;-80
2021/08/30 12:25:15;;;;;;;3.88;3.22;;;23.90;61.60;;;;;;5024459;28;20033;-80
2021/08/30 12:27:42;;;;;;;4.25;2.88;;;24.00;61.30;;;;;;5034065;28;20029;-78
2021/08/30 12:30:15;;;;;;;3.63;3.00;;;24.20;60.90;;;;;;5037175;28;20017;-86
2021/08/30 12:32:47;;;;;;;4.55;3.05;;;24.30;60.30;;;;;;5032689;28;20697;-80
2021/08/30 12:35:17;;;;;;;4.53;2.90;;;24.40;59.80;;;;;;5031724;28;20040;-79
2021/08/30 12:37:42;;;;;;;3.28;2.95;;;24.40;59.80;;;;;;5031011;28;20025;-78
2021/08/30 12:40:08;;;;;;;3.88;3.25;;;24.60;59.10;;;;;;5033319;28;20029;-80
2021/08/30 12:42:34;;;;;;;3.42;2.70;;;24.70;58.10;;;;;;5041450;28;20108;-80
2021/08/30 12:44:59;;;;;;;2.88;2.28;;;24.70;58.10;;;;;;5033999;28;20148;-79
2021/08/30 12:47:25;;;;;;;2.42;2.22;;;24.90;58.60;;;;;;5027750;28;20106;-78
2021/08/30 12:49:50;;;;;;;2.85;2.55;;;25.00;57.90;;;;;;5037892;28;20030;-80